sensor_id;sensor_type;location;lat;lon;timestamp;P1;durP1;ratioP1;P2;durP2;ratioP2
68614;SDS011;55593;51.994;5.882;2024-03-23T00:52:48;54.45;;;15.25;;
68614;SDS011;55593;51.994;5.882;2024-03-23T00:55:15;46.92;;;13.52;;
68614;SDS011;55593;51.994;5.882;2024-03-23T00:57:41;38.75;;;13.07;;
68614;SDS011;55593;51.994;5.882;2024-03-23T01:00:08;56.35;;;15.20;;
68614;SDS011;55593;51.994;5.882;2024-03-23T01:02:35;44.13;;;14.77;;
68614;SDS011;55593;51.994;5.882;2024-03-23T01:05:02;43.20;;;13.85;;
68614;SDS011;55593;51.994;5.882;2024-03-23T01:07:28;44.30;;;14.23;;
68614;SDS011;55593;51.994;5.882;2024-03-23T01:09:57;46.72;;;14.07;;
68614;SDS011;55593;51.994;5.882;2024-03-23T01:12:24;46.83;;;14.88;;
68614;SDS011;55593;51.994;5.882;2024-03-23T01:14:50;42.15;;;14.07;;
68614;SDS011;55593;51.994;5.882;2024-03-23T01:17:17;36.65;;;14.25;;
68614;SDS011;55593;51.994;5.882;2024-03-23T01:19:43;36.25;;;13.48;;
68614;SDS011;55593;51.994;5.882;2024-03-23T01:22:10;48.85;;;14.27;;
68614;SDS011;55593;51.994;5.882;2024-03-23T01:24:36;46.50;;;14.05;;
68614;SDS011;55593;51.994;5.882;2024-03-23T01:27:05;43.03;;;15.73;;
68614;SDS011;55593;51.994;5.882;2024-03-23T01:29:32;41.45;;;14.75;;
68614;SDS011;55593;51.994;5.882;2024-03-23T01:31:58;49.35;;;15.32;;
68614;SDS011;55593;51.994;5.882;2024-03-23T01:34:25;43.33;;;15.57;;
68614;SDS011;55593;51.994;5.882;2024-03-23T01:36:51;38.67;;;13.50;;
68614;SDS011;55593;51.994;5.882;2024-03-23T01:39:17;43.60;;;14.32;;
68614;SDS011;55593;51.994;5.882;2024-03-23T01:41:44;46.67;;;15.63;;
68614;SDS011;55593;51.994;5.882;2024-03-23T01:44:13;40.15;;;14.63;;
68614;SDS011;55593;51.994;5.882;2024-03-23T01:46:39;36.35;;;14.55;;
68614;SDS011;55593;51.994;5.882;2024-03-23T01:49:06;41.25;;;14.45;;
68614;SDS011;55593;51.994;5.882;2024-03-23T01:51:32;47.10;;;18.25;;
68614;SDS011;55593;51.994;5.882;2024-03-23T01:54:00;43.95;;;18.02;;
68614;SDS011;55593;51.994;5.882;2024-03-23T01:56:26;45.40;;;15.23;;
68614;SDS011;55593;51.994;5.882;2024-03-23T01:58:53;40.85;;;15.43;;
68614;SDS011;55593;51.994;5.882;2024-03-23T02:01:22;47.05;;;17.02;;
68614;SDS011;55593;51.994;5.882;2024-03-23T02:03:48;49.13;;;16.33;;
68614;SDS011;55593;51.994;5.882;2024-03-23T02:06:15;41.08;;;17.48;;
68614;SDS011;55593;51.994;5.882;2024-03-23T02:08:43;56.80;;;17.15;;
68614;SDS011;55593;51.994;5.882;2024-03-23T02:11:09;51.92;;;16.63;;
68614;SDS011;55593;51.994;5.882;2024-03-23T02:13:36;42.83;;;17.52;;
68614;SDS011;55593;51.994;5.882;2024-03-23T02:16:03;34.08;;;13.98;;
68614;SDS011;55593;51.994;5.882;2024-03-23T02:18:33;59.13;;;19.65;;
68614;SDS011;55593;51.994;5.882;2024-03-23T02:21:00;39.90;;;15.23;;
68614;SDS011;55593;51.994;5.882;2024-03-23T02:23:29;42.47;;;15.63;;
68614;SDS011;55593;51.994;5.882;2024-03-23T02:25:55;56.13;;;16.25;;
68614;SDS011;55593;51.994;5.882;2024-03-23T02:28:22;46.17;;;16.95;;
68614;SDS011;55593;51.994;5.882;2024-03-23T02:30:48;54.58;;;18.40;;
68614;SDS011;55593;51.994;5.882;2024-03-23T02:33:15;49.78;;;18.65;;
68614;SDS011;55593;51.994;5.882;2024-03-23T02:35:42;42.97;;;16.35;;
68614;SDS011;55593;51.994;5.882;2024-03-23T02:38:09;43.92;;;16.33;;
68614;SDS011;55593;51.994;5.882;2024-03-23T02:40:38;51.03;;;16.52;;
68614;SDS011;55593;51.994;5.882;2024-03-23T02:43:04;51.08;;;17.50;;
68614;SDS011;55593;51.994;5.882;2024-03-23T02:45:31;52.80;;;18.42;;
68614;SDS011;55593;51.994;5.882;2024-03-23T02:47:57;49.40;;;18.80;;
68614;SDS011;55593;51.994;5.882;2024-03-23T02:50:24;37.97;;;15.50;;
68614;SDS011;55593;51.994;5.882;2024-03-23T02:52:50;48.17;;;17.23;;
68614;SDS011;55593;51.994;5.882;2024-03-23T02:55:17;49.00;;;17.70;;
68614;SDS011;55593;51.994;5.882;2024-03-23T02:57:46;42.13;;;17.13;;
68614;SDS011;55593;51.994;5.882;2024-03-23T03:00:12;40.95;;;18.75;;
68614;SDS011;55593;51.994;5.882;2024-03-23T03:02:39;49.50;;;18.25;;
68614;SDS011;55593;51.994;5.882;2024-03-23T03:05:06;37.22;;;17.42;;
68614;SDS011;55593;51.994;5.882;2024-03-23T03:07:32;44.50;;;16.88;;
68614;SDS011;55593;51.994;5.882;2024-03-23T03:09:59;50.17;;;17.60;;
68614;SDS011;55593;51.994;5.882;2024-03-23T03:12:25;46.65;;;19.35;;
68614;SDS011;55593;51.994;5.882;2024-03-23T03:14:54;40.88;;;17.55;;
68614;SDS011;55593;51.994;5.882;2024-03-23T03:17:21;40.83;;;18.13;;
68614;SDS011;55593;51.994;5.882;2024-03-23T03:19:47;45.67;;;17.02;;
68614;SDS011;55593;51.994;5.882;2024-03-23T03:22:14;45.97;;;17.90;;
68614;SDS011;55593;51.994;5.882;2024-03-23T03:24:40;33.83;;;15.98;;
68614;SDS011;55593;51.994;5.882;2024-03-23T03:27:07;33.97;;;15.77;;
68614;SDS011;55593;51.994;5.882;2024-03-23T03:29:33;42.70;;;17.23;;
68614;SDS011;55593;51.994;5.882;2024-03-23T03:32:02;39.72;;;15.75;;
68614;SDS011;55593;51.994;5.882;2024-03-23T03:34:29;33.53;;;15.38;;
68614;SDS011;55593;51.994;5.882;2024-03-23T03:36:56;48.78;;;17.98;;
68614;SDS011;55593;51.994;5.882;2024-03-23T03:39:22;49.00;;;17.55;;
68614;SDS011;55593;51.994;5.882;2024-03-23T03:41:49;38.17;;;15.68;;
68614;SDS011;55593;51.994;5.882;2024-03-23T03:44:15;40.53;;;15.40;;
68614;SDS011;55593;51.994;5.882;2024-03-23T03:46:42;38.03;;;15.60;;
68614;SDS011;55593;51.994;5.882;2024-03-23T03:49:11;33.10;;;16.42;;
68614;SDS011;55593;51.994;5.882;2024-03-23T03:51:37;39.08;;;15.52;;
68614;SDS011;55593;51.994;5.882;2024-03-23T03:54:04;47.63;;;16.35;;
68614;SDS011;55593;51.994;5.882;2024-03-23T03:56:30;33.53;;;14.93;;
68614;SDS011;55593;51.994;5.882;2024-03-23T03:58:57;40.88;;;16.45;;
68614;SDS011;55593;51.994;5.882;2024-03-23T04:01:23;37.67;;;15.25;;
68614;SDS011;55593;51.994;5.882;2024-03-23T04:03:50;36.47;;;15.75;;
68614;SDS011;55593;51.994;5.882;2024-03-23T04:06:21;33.25;;;14.10;;
68614;SDS011;55593;51.994;5.882;2024-03-23T04:08:47;36.17;;;14.52;;
68614;SDS011;55593;51.994;5.882;2024-03-23T04:11:14;36.50;;;14.63;;
68614;SDS011;55593;51.994;5.882;2024-03-23T04:13:40;37.78;;;13.88;;
68614;SDS011;55593;51.994;5.882;2024-03-23T04:16:07;37.67;;;13.85;;
68614;SDS011;55593;51.994;5.882;2024-03-23T04:18:34;43.75;;;14.63;;
68614;SDS011;55593;51.994;5.882;2024-03-23T04:21:01;36.15;;;13.90;;
68614;SDS011;55593;51.994;5.882;2024-03-23T04:23:30;32.50;;;13.27;;
68614;SDS011;55593;51.994;5.882;2024-03-23T04:26:02;44.05;;;12.25;;
68614;SDS011;55593;51.994;5.882;2024-03-23T04:28:29;36.90;;;13.75;;
68614;SDS011;55593;51.994;5.882;2024-03-23T04:30:56;40.75;;;12.90;;
68614;SDS011;55593;51.994;5.882;2024-03-23T04:33:22;32.45;;;11.75;;
68614;SDS011;55593;51.994;5.882;2024-03-23T04:35:49;34.97;;;12.82;;
68614;SDS011;55593;51.994;5.882;2024-03-23T04:38:15;25.13;;;10.40;;
68614;SDS011;55593;51.994;5.882;2024-03-23T04:40:45;27.25;;;11.80;;
68614;SDS011;55593;51.994;5.882;2024-03-23T04:43:11;30.20;;;11.13;;
68614;SDS011;55593;51.994;5.882;2024-03-23T04:45:38;28.77;;;10.07;;
68614;SDS011;55593;51.994;5.882;2024-03-23T04:48:04;27.52;;;9.60;;
68614;SDS011;55593;51.994;5.882;2024-03-23T04:50:31;27.83;;;8.65;;
68614;SDS011;55593;51.994;5.882;2024-03-23T04:52:58;23.17;;;9.48;;
68614;SDS011;55593;51.994;5.882;2024-03-23T04:55:24;24.33;;;7.90;;
68614;SDS011;55593;51.994;5.882;2024-03-23T04:57:53;27.42;;;8.00;;
68614;SDS011;55593;51.994;5.882;2024-03-23T05:00:20;24.83;;;8.25;;
68614;SDS011;55593;51.994;5.882;2024-03-23T05:02:47;23.50;;;7.38;;
68614;SDS011;55593;51.994;5.882;2024-03-23T05:05:13;26.48;;;8.48;;
68614;SDS011;55593;51.994;5.882;2024-03-23T05:07:40;21.95;;;8.27;;
68614;SDS011;55593;51.994;5.882;2024-03-23T05:10:07;29.27;;;7.07;;
68614;SDS011;55593;51.994;5.882;2024-03-23T05:12:36;23.23;;;6.55;;
68614;SDS011;55593;51.994;5.882;2024-03-23T05:15:05;19.08;;;6.53;;
68614;SDS011;55593;51.994;5.882;2024-03-23T05:17:33;24.98;;;7.13;;
68614;SDS011;55593;51.994;5.882;2024-03-23T05:20:00;21.63;;;5.82;;
68614;SDS011;55593;51.994;5.882;2024-03-23T05:22:26;19.83;;;6.18;;
68614;SDS011;55593;51.994;5.882;2024-03-23T05:24:53;20.30;;;5.38;;
68614;SDS011;55593;51.994;5.882;2024-03-23T05:27:19;29.98;;;6.78;;
68614;SDS011;55593;51.994;5.882;2024-03-23T05:29:46;26.40;;;5.88;;
68614;SDS011;55593;51.994;5.882;2024-03-23T05:32:15;27.70;;;6.68;;
68614;SDS011;55593;51.994;5.882;2024-03-23T05:34:41;21.95;;;5.93;;
68614;SDS011;55593;51.994;5.882;2024-03-23T05:37:08;23.20;;;6.93;;
68614;SDS011;55593;51.994;5.882;2024-03-23T05:39:34;21.88;;;7.10;;
68614;SDS011;55593;51.994;5.882;2024-03-23T05:42:01;17.95;;;5.30;;
68614;SDS011;55593;51.994;5.882;2024-03-23T05:44:27;22.85;;;6.07;;
68614;SDS011;55593;51.994;5.882;2024-03-23T05:46:53;19.85;;;5.93;;
68614;SDS011;55593;51.994;5.882;2024-03-23T05:49:22;19.40;;;5.68;;
68614;SDS011;55593;51.994;5.882;2024-03-23T05:51:49;19.83;;;5.57;;
68614;SDS011;55593;51.994;5.882;2024-03-23T05:54:15;15.07;;;5.15;;
68614;SDS011;55593;51.994;5.882;2024-03-23T05:56:42;24.55;;;7.10;;
68614;SDS011;55593;51.994;5.882;2024-03-23T05:59:08;26.70;;;6.13;;
68614;SDS011;55593;51.994;5.882;2024-03-23T06:01:35;23.63;;;5.32;;
68614;SDS011;55593;51.994;5.882;2024-03-23T06:04:01;22.38;;;5.35;;
68614;SDS011;55593;51.994;5.882;2024-03-23T06:06:30;27.08;;;5.28;;
68614;SDS011;55593;51.994;5.882;2024-03-23T06:08:57;18.77;;;5.43;;
68614;SDS011;55593;51.994;5.882;2024-03-23T06:11:23;17.42;;;4.38;;
68614;SDS011;55593;51.994;5.882;2024-03-23T06:13:50;19.65;;;4.85;;
68614;SDS011;55593;51.994;5.882;2024-03-23T06:16:16;19.60;;;4.00;;
68614;SDS011;55593;51.994;5.882;2024-03-23T06:18:43;27.95;;;5.45;;
68614;SDS011;55593;51.994;5.882;2024-03-23T06:21:13;24.00;;;4.68;;
68614;SDS011;55593;51.994;5.882;2024-03-23T06:23:43;19.38;;;5.13;;
68614;SDS011;55593;51.994;5.882;2024-03-23T06:26:09;19.90;;;5.35;;
68614;SDS011;55593;51.994;5.882;2024-03-23T06:28:35;18.80;;;4.20;;
68614;SDS011;55593;51.994;5.882;2024-03-23T06:31:02;18.15;;;3.70;;
68614;SDS011;55593;51.994;5.882;2024-03-23T06:33:29;15.70;;;3.53;;
68614;SDS011;55593;51.994;5.882;2024-03-23T06:35:55;15.82;;;3.95;;
68614;SDS011;55593;51.994;5.882;2024-03-23T06:38:22;13.20;;;3.95;;
68614;SDS011;55593;51.994;5.882;2024-03-23T06:40:51;16.88;;;5.03;;
68614;SDS011;55593;51.994;5.882;2024-03-23T06:43:17;15.57;;;4.05;;
68614;SDS011;55593;51.994;5.882;2024-03-23T06:45:44;17.08;;;4.00;;
68614;SDS011;55593;51.994;5.882;2024-03-23T06:48:10;18.42;;;5.82;;
68614;SDS011;55593;51.994;5.882;2024-03-23T06:50:36;16.98;;;3.88;;
68614;SDS011;55593;51.994;5.882;2024-03-23T06:53:03;24.15;;;3.72;;
68614;SDS011;55593;51.994;5.882;2024-03-23T06:55:30;15.23;;;3.65;;
68614;SDS011;55593;51.994;5.882;2024-03-23T06:57:59;15.88;;;2.97;;
68614;SDS011;55593;51.994;5.882;2024-03-23T07:00:25;12.52;;;3.97;;
68614;SDS011;55593;51.994;5.882;2024-03-23T07:02:52;20.23;;;3.95;;
68614;SDS011;55593;51.994;5.882;2024-03-23T07:05:18;12.00;;;3.67;;
68614;SDS011;55593;51.994;5.882;2024-03-23T07:07:45;11.15;;;3.28;;
68614;SDS011;55593;51.994;5.882;2024-03-23T07:10:11;19.55;;;3.67;;
68614;SDS011;55593;51.994;5.882;2024-03-23T07:12:38;28.95;;;4.70;;
68614;SDS011;55593;51.994;5.882;2024-03-23T07:15:07;18.00;;;3.58;;
68614;SDS011;55593;51.994;5.882;2024-03-23T07:17:34;15.43;;;3.72;;
68614;SDS011;55593;51.994;5.882;2024-03-23T07:20:01;20.45;;;3.45;;
68614;SDS011;55593;51.994;5.882;2024-03-23T07:22:27;26.05;;;4.50;;
68614;SDS011;55593;51.994;5.882;2024-03-23T07:24:54;20.08;;;4.43;;
68614;SDS011;55593;51.994;5.882;2024-03-23T07:27:20;18.42;;;4.45;;
68614;SDS011;55593;51.994;5.882;2024-03-23T07:29:47;22.73;;;5.05;;
68614;SDS011;55593;51.994;5.882;2024-03-23T07:32:16;18.88;;;4.18;;
68614;SDS011;55593;51.994;5.882;2024-03-23T07:34:42;19.23;;;4.43;;
68614;SDS011;55593;51.994;5.882;2024-03-23T07:37:09;17.67;;;3.90;;
68614;SDS011;55593;51.994;5.882;2024-03-23T07:39:35;20.33;;;4.28;;
68614;SDS011;55593;51.994;5.882;2024-03-23T07:42:02;19.45;;;6.57;;
68614;SDS011;55593;51.994;5.882;2024-03-23T07:44:29;18.75;;;4.00;;
68614;SDS011;55593;51.994;5.882;2024-03-23T07:46:55;22.00;;;4.65;;
68614;SDS011;55593;51.994;5.882;2024-03-23T07:49:24;22.40;;;6.57;;
68614;SDS011;55593;51.994;5.882;2024-03-23T07:51:51;23.67;;;4.78;;
68614;SDS011;55593;51.994;5.882;2024-03-23T07:54:17;14.43;;;4.63;;
68614;SDS011;55593;51.994;5.882;2024-03-23T07:56:44;22.88;;;4.20;;
68614;SDS011;55593;51.994;5.882;2024-03-23T07:59:10;18.80;;;4.25;;
68614;SDS011;55593;51.994;5.882;2024-03-23T08:01:37;17.67;;;4.18;;
68614;SDS011;55593;51.994;5.882;2024-03-23T08:04:03;18.13;;;4.90;;
68614;SDS011;55593;51.994;5.882;2024-03-23T08:06:32;19.42;;;4.28;;
68614;SDS011;55593;51.994;5.882;2024-03-23T08:08:59;16.08;;;4.85;;
68614;SDS011;55593;51.994;5.882;2024-03-23T08:11:25;12.50;;;3.90;;
68614;SDS011;55593;51.994;5.882;2024-03-23T08:13:52;19.45;;;4.47;;
68614;SDS011;55593;51.994;5.882;2024-03-23T08:16:18;21.58;;;4.70;;
68614;SDS011;55593;51.994;5.882;2024-03-23T08:18:45;26.25;;;6.18;;
68614;SDS011;55593;51.994;5.882;2024-03-23T08:21:11;18.95;;;4.03;;
68614;SDS011;55593;51.994;5.882;2024-03-23T08:23:40;18.80;;;3.92;;
68614;SDS011;55593;51.994;5.882;2024-03-23T08:26:07;18.67;;;5.13;;
68614;SDS011;55593;51.994;5.882;2024-03-23T08:28:34;18.67;;;5.10;;
68614;SDS011;55593;51.994;5.882;2024-03-23T08:31:01;15.07;;;3.88;;
68614;SDS011;55593;51.994;5.882;2024-03-23T08:33:29;18.23;;;4.13;;
68614;SDS011;55593;51.994;5.882;2024-03-23T08:35:56;18.83;;;4.07;;
68614;SDS011;55593;51.994;5.882;2024-03-23T08:38:23;24.85;;;4.72;;
68614;SDS011;55593;51.994;5.882;2024-03-23T08:40:58;10.68;;;3.38;;
68614;SDS011;55593;51.994;5.882;2024-03-23T08:43:25;17.40;;;3.78;;
68614;SDS011;55593;51.994;5.882;2024-03-23T08:45:53;16.40;;;3.35;;
68614;SDS011;55593;51.994;5.882;2024-03-23T08:48:19;13.23;;;2.80;;
68614;SDS011;55593;51.994;5.882;2024-03-23T08:50:46;15.50;;;5.07;;
68614;SDS011;55593;51.994;5.882;2024-03-23T08:53:12;14.98;;;3.70;;
68614;SDS011;55593;51.994;5.882;2024-03-23T08:55:39;11.82;;;3.38;;
68614;SDS011;55593;51.994;5.882;2024-03-23T08:58:09;15.57;;;2.60;;
68614;SDS011;55593;51.994;5.882;2024-03-23T09:00:35;14.88;;;2.70;;
68614;SDS011;55593;51.994;5.882;2024-03-23T09:03:02;15.60;;;2.80;;
68614;SDS011;55593;51.994;5.882;2024-03-23T09:05:29;13.15;;;2.85;;
68614;SDS011;55593;51.994;5.882;2024-03-23T09:07:55;16.40;;;2.75;;
68614;SDS011;55593;51.994;5.882;2024-03-23T09:10:22;8.27;;;2.35;;
68614;SDS011;55593;51.994;5.882;2024-03-23T09:12:48;12.90;;;3.55;;
68614;SDS011;55593;51.994;5.882;2024-03-23T09:15:17;11.45;;;2.60;;
68614;SDS011;55593;51.994;5.882;2024-03-23T09:17:44;21.30;;;3.28;;
68614;SDS011;55593;51.994;5.882;2024-03-23T09:20:10;14.20;;;3.85;;
68614;SDS011;55593;51.994;5.882;2024-03-23T09:22:37;13.05;;;2.97;;
68614;SDS011;55593;51.994;5.882;2024-03-23T09:25:04;14.68;;;3.08;;
68614;SDS011;55593;51.994;5.882;2024-03-23T09:27:31;18.45;;;3.70;;
68614;SDS011;55593;51.994;5.882;2024-03-23T09:29:57;13.25;;;2.88;;
68614;SDS011;55593;51.994;5.882;2024-03-23T09:32:26;14.40;;;2.80;;
68614;SDS011;55593;51.994;5.882;2024-03-23T09:34:53;10.75;;;3.38;;
68614;SDS011;55593;51.994;5.882;2024-03-23T09:37:19;10.48;;;2.78;;
68614;SDS011;55593;51.994;5.882;2024-03-23T09:39:46;12.13;;;2.85;;
68614;SDS011;55593;51.994;5.882;2024-03-23T09:42:12;13.20;;;3.42;;
68614;SDS011;55593;51.994;5.882;2024-03-23T09:44:39;17.95;;;4.05;;
68614;SDS011;55593;51.994;5.882;2024-03-23T09:47:05;12.20;;;3.33;;
68614;SDS011;55593;51.994;5.882;2024-03-23T09:49:34;12.38;;;3.08;;
68614;SDS011;55593;51.994;5.882;2024-03-23T09:52:02;12.18;;;3.63;;
68614;SDS011;55593;51.994;5.882;2024-03-23T09:54:28;12.50;;;2.40;;
68614;SDS011;55593;51.994;5.882;2024-03-23T09:56:55;10.02;;;3.58;;
68614;SDS011;55593;51.994;5.882;2024-03-23T09:59:21;14.00;;;3.25;;
68614;SDS011;55593;51.994;5.882;2024-03-23T10:01:48;18.10;;;3.45;;
68614;SDS011;55593;51.994;5.882;2024-03-23T10:07:11;10.10;;;2.13;;
68614;SDS011;55593;51.994;5.882;2024-03-23T10:09:38;10.25;;;2.42;;
68614;SDS011;55593;51.994;5.882;2024-03-23T10:12:08;10.10;;;2.08;;
68614;SDS011;55593;51.994;5.882;2024-03-23T10:14:36;9.35;;;2.20;;
68614;SDS011;55593;51.994;5.882;2024-03-23T10:17:12;12.00;;;2.33;;
68614;SDS011;55593;51.994;5.882;2024-03-23T10:19:45;11.02;;;2.40;;
68614;SDS011;55593;51.994;5.882;2024-03-23T10:22:13;14.30;;;2.40;;
68614;SDS011;55593;51.994;5.882;2024-03-23T10:24:40;10.65;;;2.60;;
68614;SDS011;55593;51.994;5.882;2024-03-23T10:27:07;8.93;;;3.00;;
68614;SDS011;55593;51.994;5.882;2024-03-23T10:29:33;12.32;;;2.60;;
68614;SDS011;55593;51.994;5.882;2024-03-23T10:32:09;12.35;;;2.33;;
68614;SDS011;55593;51.994;5.882;2024-03-23T10:34:36;12.05;;;2.58;;
68614;SDS011;55593;51.994;5.882;2024-03-23T10:37:06;12.80;;;3.03;;
68614;SDS011;55593;51.994;5.882;2024-03-23T10:39:33;9.52;;;2.13;;
68614;SDS011;55593;51.994;5.882;2024-03-23T10:42:02;13.70;;;2.58;;
68614;SDS011;55593;51.994;5.882;2024-03-23T10:44:29;10.30;;;3.58;;
68614;SDS011;55593;51.994;5.882;2024-03-23T10:46:57;12.77;;;2.97;;
68614;SDS011;55593;51.994;5.882;2024-03-23T10:49:27;13.70;;;3.22;;
68614;SDS011;55593;51.994;5.882;2024-03-23T10:51:58;18.80;;;4.15;;
68614;SDS011;55593;51.994;5.882;2024-03-23T10:54:27;9.13;;;2.63;;
68614;SDS011;55593;51.994;5.882;2024-03-23T10:57:03;7.90;;;2.95;;
68614;SDS011;55593;51.994;5.882;2024-03-23T10:59:31;14.23;;;3.28;;
68614;SDS011;55593;51.994;5.882;2024-03-23T11:01:58;14.38;;;2.88;;
68614;SDS011;55593;51.994;5.882;2024-03-23T11:04:32;10.20;;;3.20;;
68614;SDS011;55593;51.994;5.882;2024-03-23T11:06:59;13.35;;;4.18;;
68614;SDS011;55593;51.994;5.882;2024-03-23T11:09:40;14.85;;;3.35;;
68614;SDS011;55593;51.994;5.882;2024-03-23T11:12:17;16.92;;;5.47;;
68614;SDS011;55593;51.994;5.882;2024-03-23T11:14:52;10.63;;;2.88;;
68614;SDS011;55593;51.994;5.882;2024-03-23T11:17:20;10.50;;;2.80;;
68614;SDS011;55593;51.994;5.882;2024-03-23T11:19:52;9.82;;;2.95;;
68614;SDS011;55593;51.994;5.882;2024-03-23T11:25:13;13.00;;;2.67;;
68614;SDS011;55593;51.994;5.882;2024-03-23T11:27:40;14.82;;;3.03;;
68614;SDS011;55593;51.994;5.882;2024-03-23T11:30:11;9.68;;;3.05;;
68614;SDS011;55593;51.994;5.882;2024-03-23T11:32:42;8.70;;;2.15;;
68614;SDS011;55593;51.994;5.882;2024-03-23T11:35:09;11.02;;;3.20;;
68614;SDS011;55593;51.994;5.882;2024-03-23T11:37:36;9.93;;;3.45;;
68614;SDS011;55593;51.994;5.882;2024-03-23T11:42:54;8.65;;;2.03;;
68614;SDS011;55593;51.994;5.882;2024-03-23T11:45:21;8.02;;;2.20;;
68614;SDS011;55593;51.994;5.882;2024-03-23T11:47:48;7.82;;;2.40;;
68614;SDS011;55593;51.994;5.882;2024-03-23T11:50:19;9.73;;;2.00;;
68614;SDS011;55593;51.994;5.882;2024-03-23T11:52:46;11.85;;;2.72;;
68614;SDS011;55593;51.994;5.882;2024-03-23T11:55:12;14.13;;;2.50;;
68614;SDS011;55593;51.994;5.882;2024-03-23T11:57:41;11.15;;;2.72;;
68614;SDS011;55593;51.994;5.882;2024-03-23T12:00:20;9.52;;;2.67;;
68614;SDS011;55593;51.994;5.882;2024-03-23T12:02:47;9.05;;;2.83;;
68614;SDS011;55593;51.994;5.882;2024-03-23T12:05:14;10.45;;;2.70;;
68614;SDS011;55593;51.994;5.882;2024-03-23T12:07:41;10.98;;;2.92;;
68614;SDS011;55593;51.994;5.882;2024-03-23T12:10:08;11.48;;;2.30;;
68614;SDS011;55593;51.994;5.882;2024-03-23T12:12:34;9.98;;;2.53;;
68614;SDS011;55593;51.994;5.882;2024-03-23T12:15:04;12.13;;;2.20;;
68614;SDS011;55593;51.994;5.882;2024-03-23T12:17:32;10.35;;;1.95;;
68614;SDS011;55593;51.994;5.882;2024-03-23T12:19:58;9.20;;;1.98;;
68614;SDS011;55593;51.994;5.882;2024-03-23T12:22:25;9.25;;;2.30;;
68614;SDS011;55593;51.994;5.882;2024-03-23T12:24:52;8.40;;;2.38;;
68614;SDS011;55593;51.994;5.882;2024-03-23T12:27:18;11.90;;;2.33;;
68614;SDS011;55593;51.994;5.882;2024-03-23T12:29:45;9.57;;;2.38;;
68614;SDS011;55593;51.994;5.882;2024-03-23T12:32:14;10.30;;;2.50;;
68614;SDS011;55593;51.994;5.882;2024-03-23T12:34:40;10.40;;;2.30;;
68614;SDS011;55593;51.994;5.882;2024-03-23T12:37:07;16.60;;;3.47;;
68614;SDS011;55593;51.994;5.882;2024-03-23T12:39:34;12.45;;;3.03;;
68614;SDS011;55593;51.994;5.882;2024-03-23T12:42:01;17.55;;;2.85;;
68614;SDS011;55593;51.994;5.882;2024-03-23T12:44:28;16.17;;;2.78;;
68614;SDS011;55593;51.994;5.882;2024-03-23T12:46:55;14.50;;;2.47;;
68614;SDS011;55593;51.994;5.882;2024-03-23T12:49:24;16.88;;;3.47;;
68614;SDS011;55593;51.994;5.882;2024-03-23T12:51:53;14.85;;;2.85;;
68614;SDS011;55593;51.994;5.882;2024-03-23T12:54:20;9.93;;;2.30;;
68614;SDS011;55593;51.994;5.882;2024-03-23T12:56:49;15.80;;;2.15;;
68614;SDS011;55593;51.994;5.882;2024-03-23T12:59:16;10.63;;;2.42;;
68614;SDS011;55593;51.994;5.882;2024-03-23T13:01:42;11.05;;;2.88;;
68614;SDS011;55593;51.994;5.882;2024-03-23T13:04:09;9.88;;;2.08;;
68614;SDS011;55593;51.994;5.882;2024-03-23T13:06:38;12.63;;;2.95;;
68614;SDS011;55593;51.994;5.882;2024-03-23T13:09:05;19.23;;;2.88;;
68614;SDS011;55593;51.994;5.882;2024-03-23T13:11:31;18.92;;;3.33;;
68614;SDS011;55593;51.994;5.882;2024-03-23T13:13:58;14.45;;;4.13;;
68614;SDS011;55593;51.994;5.882;2024-03-23T13:16:24;13.90;;;3.10;;
68614;SDS011;55593;51.994;5.882;2024-03-23T13:18:51;11.23;;;3.17;;
68614;SDS011;55593;51.994;5.882;2024-03-23T13:21:17;9.68;;;2.50;;
68614;SDS011;55593;51.994;5.882;2024-03-23T13:23:48;15.18;;;3.13;;
68614;SDS011;55593;51.994;5.882;2024-03-23T13:26:15;14.02;;;3.22;;
68614;SDS011;55593;51.994;5.882;2024-03-23T13:28:42;14.25;;;2.92;;
68614;SDS011;55593;51.994;5.882;2024-03-23T13:31:09;18.13;;;3.42;;
68614;SDS011;55593;51.994;5.882;2024-03-23T13:33:35;12.93;;;2.70;;
68614;SDS011;55593;51.994;5.882;2024-03-23T13:36:02;14.18;;;2.95;;
68614;SDS011;55593;51.994;5.882;2024-03-23T13:38:29;8.88;;;3.28;;
68614;SDS011;55593;51.994;5.882;2024-03-23T13:40:59;23.45;;;8.82;;
68614;SDS011;55593;51.994;5.882;2024-03-23T13:43:26;18.13;;;2.80;;
68614;SDS011;55593;51.994;5.882;2024-03-23T13:45:54;10.68;;;2.28;;
68614;SDS011;55593;51.994;5.882;2024-03-23T13:48:22;15.85;;;3.38;;
68614;SDS011;55593;51.994;5.882;2024-03-23T13:50:56;14.15;;;4.80;;
68614;SDS011;55593;51.994;5.882;2024-03-23T13:53:23;18.08;;;4.75;;
68614;SDS011;55593;51.994;5.882;2024-03-23T13:55:49;14.65;;;2.53;;
68614;SDS011;55593;51.994;5.882;2024-03-23T13:58:19;16.35;;;2.90;;
68614;SDS011;55593;51.994;5.882;2024-03-23T14:00:45;11.43;;;2.53;;
68614;SDS011;55593;51.994;5.882;2024-03-23T14:03:12;11.50;;;2.75;;
68614;SDS011;55593;51.994;5.882;2024-03-23T14:05:39;18.75;;;3.75;;
68614;SDS011;55593;51.994;5.882;2024-03-23T14:08:06;12.20;;;2.22;;
68614;SDS011;55593;51.994;5.882;2024-03-23T14:10:33;10.63;;;2.95;;
68614;SDS011;55593;51.994;5.882;2024-03-23T14:13:00;11.32;;;2.20;;
68614;SDS011;55593;51.994;5.882;2024-03-23T14:15:29;8.52;;;1.70;;
68614;SDS011;55593;51.994;5.882;2024-03-23T14:17:56;7.30;;;2.05;;
68614;SDS011;55593;51.994;5.882;2024-03-23T14:20:22;10.55;;;1.90;;
68614;SDS011;55593;51.994;5.882;2024-03-23T14:22:49;6.63;;;1.95;;
68614;SDS011;55593;51.994;5.882;2024-03-23T14:25:16;6.75;;;2.35;;
68614;SDS011;55593;51.994;5.882;2024-03-23T14:27:43;12.98;;;2.75;;
68614;SDS011;55593;51.994;5.882;2024-03-23T14:30:10;10.88;;;2.28;;
68614;SDS011;55593;51.994;5.882;2024-03-23T14:32:40;12.13;;;3.15;;
68614;SDS011;55593;51.994;5.882;2024-03-23T14:35:07;8.95;;;1.95;;
68614;SDS011;55593;51.994;5.882;2024-03-23T14:37:34;8.70;;;2.10;;
68614;SDS011;55593;51.994;5.882;2024-03-23T14:40:01;5.65;;;1.92;;
68614;SDS011;55593;51.994;5.882;2024-03-23T14:42:27;7.95;;;1.45;;
68614;SDS011;55593;51.994;5.882;2024-03-23T14:44:54;12.43;;;2.00;;
68614;SDS011;55593;51.994;5.882;2024-03-23T14:47:20;6.18;;;1.63;;
68614;SDS011;55593;51.994;5.882;2024-03-23T14:49:49;7.53;;;2.53;;
68614;SDS011;55593;51.994;5.882;2024-03-23T14:52:16;7.28;;;2.55;;
68614;SDS011;55593;51.994;5.882;2024-03-23T14:54:43;13.10;;;3.00;;
68614;SDS011;55593;51.994;5.882;2024-03-23T14:57:09;9.55;;;2.63;;
68614;SDS011;55593;51.994;5.882;2024-03-23T14:59:36;11.98;;;2.55;;
68614;SDS011;55593;51.994;5.882;2024-03-23T15:02:03;6.78;;;2.20;;
68614;SDS011;55593;51.994;5.882;2024-03-23T15:04:30;15.88;;;2.97;;
68614;SDS011;55593;51.994;5.882;2024-03-23T15:06:59;13.95;;;2.28;;
68614;SDS011;55593;51.994;5.882;2024-03-23T15:09:25;8.25;;;2.42;;
68614;SDS011;55593;51.994;5.882;2024-03-23T15:11:52;10.23;;;2.30;;
68614;SDS011;55593;51.994;5.882;2024-03-23T15:14:19;13.18;;;3.10;;
68614;SDS011;55593;51.994;5.882;2024-03-23T15:16:45;12.27;;;3.45;;
68614;SDS011;55593;51.994;5.882;2024-03-23T15:19:11;15.60;;;3.10;;
68614;SDS011;55593;51.994;5.882;2024-03-23T15:21:38;17.33;;;2.63;;
68614;SDS011;55593;51.994;5.882;2024-03-23T15:24:07;19.20;;;3.13;;
68614;SDS011;55593;51.994;5.882;2024-03-23T15:26:35;7.00;;;1.88;;
68614;SDS011;55593;51.994;5.882;2024-03-23T15:29:01;11.65;;;2.30;;
68614;SDS011;55593;51.994;5.882;2024-03-23T15:31:35;12.15;;;2.30;;
68614;SDS011;55593;51.994;5.882;2024-03-23T15:34:02;12.68;;;2.67;;